EXS67DM EGNM-LTBS
Flight info
| Callsign | EXS67DM |
|---|---|
| Flight time | N/A |
| Altitude | 35000 |
| Route | LAMIX L603 DOLAS DCT NAVPI DCT DODEN DCT NEGIX DCT DINKU DCT BESNI DCT LATLO/N0449F370 DCT OBEDI DCT AGLIB DCT VABEK UL603 OLOTA DCT RUGAS UN128 LMO UN127 RIKSO UP14 ODNOD/N0417F270 T491 SONUP |
| Aircraft | B738/M-SDE2E3FGHIRWXY/LB1 |
Departure
| Time | 2026-05-05 11:39 |
|---|---|
| Airport | Leeds Bradford Airport (EGNM) |
Arrival
| Time | N/A |
|---|---|
| Airport | Dalaman International Airport (LTBS) |
| Time | Latitude | Longitude | Altitude | Speed | Heading |
|---|---|---|---|---|---|
| 2026-05-05 10:41 | 53.86878 | -1.65690 | 664 ft | 0 kts | 1° |
| 2026-05-05 11:29 | 53.86859 | -1.65690 | 664 ft | 4 kts | 1° |
| 2026-05-05 11:30 | 53.86834 | -1.65697 | 660 ft | 4 kts | 30° |
| 2026-05-05 11:30 | 53.86818 | -1.65726 | 664 ft | 4 kts | 81° |
| 2026-05-05 11:30 | 53.86817 | -1.65741 | 664 ft | 1 kts | 92° |
| 2026-05-05 11:33 | 53.86816 | -1.65734 | 664 ft | 2 kts | 91° |
| 2026-05-05 11:34 | 53.86816 | -1.65671 | 663 ft | 8 kts | 90° |
| 2026-05-05 11:34 | 53.86816 | -1.65555 | 663 ft | 10 kts | 91° |
| 2026-05-05 11:34 | 53.86807 | -1.65437 | 660 ft | 10 kts | 125° |
| 2026-05-05 11:34 | 53.86737 | -1.65416 | 660 ft | 11 kts | 183° |
| 2026-05-05 11:35 | 53.86648 | -1.65425 | 661 ft | 14 kts | 184° |
| 2026-05-05 11:35 | 53.86552 | -1.65435 | 666 ft | 14 kts | 183° |
| 2026-05-05 11:35 | 53.86451 | -1.65445 | 670 ft | 15 kts | 183° |
| 2026-05-05 11:35 | 53.86348 | -1.65455 | 677 ft | 15 kts | 183° |
| 2026-05-05 11:36 | 53.86251 | -1.65465 | 679 ft | 13 kts | 183° |
| 2026-05-05 11:36 | 53.86174 | -1.65415 | 679 ft | 12 kts | 140° |
| 2026-05-05 11:36 | 53.86106 | -1.65313 | 678 ft | 15 kts | 137° |
| 2026-05-05 11:36 | 53.86017 | -1.65174 | 673 ft | 19 kts | 137° |
| 2026-05-05 11:37 | 53.85934 | -1.65044 | 666 ft | 11 kts | 129° |
| 2026-05-05 11:37 | 53.85904 | -1.64924 | 664 ft | 7 kts | 123° |
| 2026-05-05 11:37 | 53.85870 | -1.64936 | 661 ft | 7 kts | 255° |
| 2026-05-05 11:37 | 53.85895 | -1.64989 | 663 ft | 5 kts | 318° |
| 2026-05-05 11:38 | 53.85898 | -1.64994 | 663 ft | 0 kts | 317° |
| 2026-05-05 11:38 | 53.85910 | -1.65013 | 663 ft | 15 kts | 317° |
| 2026-05-05 11:38 | 53.86181 | -1.65428 | 679 ft | 90 kts | 317° |
| 2026-05-05 11:39 | 53.86823 | -1.66421 | 675 ft | 157 kts | 315° |
| 2026-05-05 11:39 | 53.87673 | -1.67746 | 1355 ft | 166 kts | 317° |
| 2026-05-05 11:39 | 53.88483 | -1.69205 | 2231 ft | 178 kts | 312° |
| 2026-05-05 11:39 | 53.89320 | -1.70876 | 2655 ft | 199 kts | 312° |
| 2026-05-05 11:40 | 53.90128 | -1.72973 | 2833 ft | 229 kts | 288° |
| 2026-05-05 11:40 | 53.90061 | -1.75796 | 3163 ft | 254 kts | 256° |
| 2026-05-05 11:40 | 53.89441 | -1.78654 | 3932 ft | 263 kts | 243° |
| 2026-05-05 11:40 | 53.88246 | -1.81024 | 4781 ft | 269 kts | 218° |
| 2026-05-05 11:41 | 53.86546 | -1.82336 | 5639 ft | 271 kts | 190° |
| 2026-05-05 11:41 | 53.84656 | -1.82234 | 6416 ft | 277 kts | 162° |
| 2026-05-05 11:41 | 53.83058 | -1.80488 | 7150 ft | 280 kts | 129° |
| 2026-05-05 11:41 | 53.81907 | -1.77811 | 7856 ft | 285 kts | 127° |
| 2026-05-05 11:42 | 53.80609 | -1.75244 | 8618 ft | 288 kts | 133° |
| 2026-05-05 11:42 | 53.79183 | -1.72805 | 9326 ft | 295 kts | 136° |
| 2026-05-05 11:42 | 53.77677 | -1.70389 | 10032 ft | 300 kts | 137° |
| 2026-05-05 11:42 | 53.76124 | -1.67955 | 10497 ft | 314 kts | 138° |
| 2026-05-05 11:43 | 53.74453 | -1.65366 | 10667 ft | 337 kts | 138° |
| 2026-05-05 11:43 | 53.72669 | -1.62605 | 10879 ft | 357 kts | 137° |
| 2026-05-05 11:43 | 53.71032 | -1.59371 | 11384 ft | 367 kts | 122° |
| 2026-05-05 11:43 | 53.69912 | -1.55482 | 12118 ft | 369 kts | 112° |
| 2026-05-05 11:44 | 53.68965 | -1.51441 | 12853 ft | 372 kts | 112° |
| 2026-05-05 11:44 | 53.68015 | -1.47406 | 13508 ft | 377 kts | 112° |
| 2026-05-05 11:44 | 53.67014 | -1.43228 | 14127 ft | 382 kts | 112° |
| 2026-05-05 11:44 | 53.66013 | -1.39114 | 14718 ft | 386 kts | 113° |
| 2026-05-05 11:45 | 53.64979 | -1.34911 | 15335 ft | 389 kts | 113° |
| 2026-05-05 11:45 | 53.63932 | -1.30679 | 15939 ft | 393 kts | 114° |
| 2026-05-05 11:45 | 53.62871 | -1.26404 | 16523 ft | 397 kts | 114° |
| 2026-05-05 11:45 | 53.61799 | -1.22099 | 17120 ft | 401 kts | 114° |
| 2026-05-05 11:46 | 53.60712 | -1.17754 | 17706 ft | 404 kts | 114° |
| 2026-05-05 11:46 | 53.59602 | -1.13381 | 18284 ft | 408 kts | 115° |
| 2026-05-05 11:46 | 53.58491 | -1.09024 | 18787 ft | 411 kts | 115° |
| 2026-05-05 11:46 | 53.57735 | -1.06014 | 19151 ft | 413 kts | 115° |
| 2026-05-05 11:47 | 53.56543 | -1.01613 | 19671 ft | 415 kts | 118° |
| 2026-05-05 11:47 | 53.55260 | -0.97246 | 20118 ft | 419 kts | 119° |
| 2026-05-05 11:47 | 53.53933 | -0.92863 | 20628 ft | 422 kts | 120° |
| 2026-05-05 11:47 | 53.52191 | -0.87188 | 21305 ft | 424 kts | 120° |
| 2026-05-05 11:48 | 53.49929 | -0.79758 | 22156 ft | 429 kts | 117° |
| 2026-05-05 11:48 | 53.48702 | -0.75172 | 22628 ft | 432 kts | 116° |
| 2026-05-05 11:48 | 53.47717 | -0.71388 | 23011 ft | 434 kts | 116° |
| 2026-05-05 11:49 | 53.46494 | -0.66808 | 23471 ft | 437 kts | 117° |
| 2026-05-05 11:49 | 53.45210 | -0.62173 | 23875 ft | 439 kts | 118° |
| 2026-05-05 11:49 | 53.43901 | -0.57538 | 24287 ft | 440 kts | 118° |
| 2026-05-05 11:49 | 53.42791 | -0.53630 | 24619 ft | 441 kts | 118° |
| 2026-05-05 11:50 | 53.41475 | -0.48974 | 25016 ft | 443 kts | 117° |
| 2026-05-05 11:50 | 53.40392 | -0.44773 | 25345 ft | 446 kts | 114° |
| 2026-05-05 11:50 | 53.39242 | -0.39943 | 25706 ft | 448 kts | 113° |
| 2026-05-05 11:50 | 53.38123 | -0.35143 | 26070 ft | 449 kts | 113° |
| 2026-05-05 11:51 | 53.36973 | -0.30269 | 26445 ft | 451 kts | 113° |
| 2026-05-05 11:51 | 53.35799 | -0.25396 | 26812 ft | 452 kts | 114° |
| 2026-05-05 11:51 | 53.34625 | -0.20581 | 27146 ft | 454 kts | 114° |
| 2026-05-05 11:51 | 53.33439 | -0.15751 | 27497 ft | 455 kts | 114° |
| 2026-05-05 11:52 | 53.32228 | -0.10838 | 27847 ft | 457 kts | 113° |
| 2026-05-05 11:52 | 53.31016 | -0.05919 | 28176 ft | 458 kts | 113° |
| 2026-05-05 11:52 | 53.29959 | -0.01632 | 28456 ft | 459 kts | 113° |
| 2026-05-05 11:52 | 53.28695 | 0.03478 | 28733 ft | 462 kts | 113° |
| 2026-05-05 11:53 | 53.27467 | 0.08434 | 29017 ft | 464 kts | 114° |
| 2026-05-05 11:53 | 53.26225 | 0.13426 | 29296 ft | 466 kts | 114° |
| 2026-05-05 11:53 | 53.24979 | 0.18422 | 29707 ft | 464 kts | 114° |
| 2026-05-05 11:53 | 53.23745 | 0.23367 | 30260 ft | 459 kts | 114° |
| 2026-05-05 11:54 | 53.22587 | 0.27998 | 30678 ft | 456 kts | 114° |
| 2026-05-05 11:54 | 53.21365 | 0.32872 | 30985 ft | 456 kts | 114° |
| 2026-05-05 11:54 | 53.20140 | 0.37749 | 31260 ft | 456 kts | 114° |
| 2026-05-05 11:54 | 53.18933 | 0.42544 | 31593 ft | 455 kts | 114° |
| 2026-05-05 11:55 | 53.17839 | 0.46884 | 31937 ft | 453 kts | 114° |
| 2026-05-05 11:55 | 53.16653 | 0.51575 | 32312 ft | 450 kts | 114° |
| 2026-05-05 11:55 | 53.15442 | 0.56359 | 32554 ft | 451 kts | 114° |
| 2026-05-05 11:55 | 53.14235 | 0.61111 | 32714 ft | 454 kts | 114° |
| 2026-05-05 11:56 | 53.13135 | 0.65439 | 32983 ft | 453 kts | 114° |
| 2026-05-05 11:56 | 53.11908 | 0.70252 | 33378 ft | 450 kts | 114° |
| 2026-05-05 11:56 | 53.10690 | 0.75023 | 33768 ft | 447 kts | 114° |
| 2026-05-05 11:56 | 53.09474 | 0.79775 | 34072 ft | 445 kts | 114° |
| 2026-05-05 11:57 | 53.08260 | 0.84508 | 34259 ft | 446 kts | 114° |
| 2026-05-05 11:57 | 53.07038 | 0.89264 | 34393 ft | 448 kts | 114° |
| 2026-05-05 11:57 | 53.05809 | 0.94040 | 34543 ft | 449 kts | 114° |
| 2026-05-05 11:57 | 53.04579 | 0.98809 | 34730 ft | 450 kts | 114° |
| 2026-05-05 11:58 | 53.03342 | 1.03592 | 34914 ft | 450 kts | 114° |
| 2026-05-05 11:58 | 53.02102 | 1.08372 | 34990 ft | 453 kts | 114° |
| 2026-05-05 11:58 | 52.99588 | 1.18025 | 34989 ft | 456 kts | 115° |
| 2026-05-05 11:59 | 52.97069 | 1.27664 | 34998 ft | 454 kts | 115° |
| 2026-05-05 11:59 | 52.94551 | 1.37267 | 34995 ft | 454 kts | 115° |
| 2026-05-05 12:00 | 52.92048 | 1.46770 | 34998 ft | 453 kts | 115° |
| 2026-05-05 12:00 | 52.89524 | 1.56314 | 34994 ft | 453 kts | 116° |
| 2026-05-05 12:01 | 52.86988 | 1.65861 | 35001 ft | 453 kts | 116° |
| 2026-05-05 12:01 | 52.84444 | 1.75398 | 34999 ft | 453 kts | 116° |
| 2026-05-05 12:02 | 52.81900 | 1.84896 | 34996 ft | 454 kts | 116° |
| 2026-05-05 12:02 | 52.79341 | 1.94413 | 34995 ft | 455 kts | 116° |
| 2026-05-05 12:03 | 52.76777 | 2.03904 | 34991 ft | 456 kts | 116° |
| 2026-05-05 12:03 | 52.74170 | 2.13519 | 34988 ft | 456 kts | 117° |
| 2026-05-05 12:04 | 52.71584 | 2.23017 | 34994 ft | 457 kts | 117° |
| 2026-05-05 12:04 | 52.68973 | 2.32568 | 34991 ft | 457 kts | 117° |
| 2026-05-05 12:05 | 52.66638 | 2.41075 | 34988 ft | 457 kts | 117° |
| 2026-05-05 12:05 | 52.64049 | 2.50469 | 34980 ft | 456 kts | 117° |
| 2026-05-05 12:06 | 52.61473 | 2.59782 | 34981 ft | 456 kts | 117° |
| 2026-05-05 12:06 | 52.58857 | 2.69202 | 34987 ft | 455 kts | 117° |
| 2026-05-05 12:07 | 52.56231 | 2.78626 | 34986 ft | 455 kts | 117° |
| 2026-05-05 12:07 | 52.53503 | 2.88001 | 34977 ft | 453 kts | 121° |
| 2026-05-05 12:08 | 52.50481 | 2.97047 | 34983 ft | 452 kts | 122° |
| 2026-05-05 12:08 | 52.47409 | 3.05994 | 34961 ft | 452 kts | 122° |
| 2026-05-05 12:09 | 52.44359 | 3.14942 | 34981 ft | 453 kts | 122° |
| 2026-05-05 12:09 | 52.41327 | 3.23888 | 34983 ft | 453 kts | 122° |
| 2026-05-05 12:10 | 52.38273 | 3.32896 | 34982 ft | 454 kts | 122° |
| 2026-05-05 12:10 | 52.35201 | 3.41927 | 34973 ft | 455 kts | 122° |
| 2026-05-05 12:11 | 52.32130 | 3.50921 | 34961 ft | 456 kts | 122° |
| 2026-05-05 12:11 | 52.29029 | 3.59965 | 34964 ft | 456 kts | 122° |
| 2026-05-05 12:12 | 52.25920 | 3.69001 | 34962 ft | 457 kts | 122° |
| 2026-05-05 12:12 | 52.22794 | 3.78053 | 34957 ft | 457 kts | 122° |
| 2026-05-05 12:13 | 52.19664 | 3.87086 | 34955 ft | 457 kts | 122° |
| 2026-05-05 12:13 | 52.16529 | 3.96101 | 34928 ft | 457 kts | 123° |
| 2026-05-05 12:14 | 52.13408 | 4.05042 | 34942 ft | 456 kts | 123° |
| 2026-05-05 12:14 | 52.10275 | 4.13989 | 34932 ft | 455 kts | 123° |
| 2026-05-05 12:15 | 52.07140 | 4.22907 | 34931 ft | 454 kts | 124° |
| 2026-05-05 12:15 | 52.04004 | 4.31793 | 34929 ft | 453 kts | 124° |
| 2026-05-05 12:16 | 52.00869 | 4.40647 | 34909 ft | 452 kts | 124° |
| 2026-05-05 12:16 | 51.97733 | 4.49475 | 34927 ft | 451 kts | 124° |
| 2026-05-05 12:17 | 51.94596 | 4.58271 | 34911 ft | 450 kts | 124° |
| 2026-05-05 12:17 | 51.91543 | 4.66806 | 34918 ft | 450 kts | 124° |
| 2026-05-05 12:18 | 51.88402 | 4.75555 | 34928 ft | 449 kts | 125° |
| 2026-05-05 12:18 | 51.85264 | 4.84267 | 34925 ft | 448 kts | 125° |
| 2026-05-05 12:19 | 51.82116 | 4.92973 | 34913 ft | 448 kts | 125° |
| 2026-05-05 12:19 | 51.78969 | 5.01649 | 34916 ft | 448 kts | 125° |
| 2026-05-05 12:20 | 51.75834 | 5.10261 | 34924 ft | 448 kts | 126° |
| 2026-05-05 12:20 | 51.72668 | 5.18929 | 34924 ft | 449 kts | 126° |
| 2026-05-05 12:21 | 51.69489 | 5.27603 | 34917 ft | 450 kts | 126° |
| 2026-05-05 12:21 | 51.66279 | 5.36334 | 34899 ft | 450 kts | 126° |
| 2026-05-05 12:22 | 51.63104 | 5.44939 | 34909 ft | 450 kts | 126° |
| 2026-05-05 12:22 | 51.59902 | 5.53587 | 34915 ft | 450 kts | 126° |
| 2026-05-05 12:23 | 51.56690 | 5.62236 | 34914 ft | 450 kts | 126° |
| 2026-05-05 12:23 | 51.53447 | 5.70933 | 34912 ft | 451 kts | 126° |
| 2026-05-05 12:24 | 51.50245 | 5.79495 | 34896 ft | 450 kts | 126° |
| 2026-05-05 12:24 | 51.46994 | 5.88159 | 34907 ft | 450 kts | 126° |
| 2026-05-05 12:25 | 51.43777 | 5.96703 | 34907 ft | 450 kts | 126° |
| 2026-05-05 12:25 | 51.41281 | 6.03313 | 34904 ft | 450 kts | 126° |
| 2026-05-05 12:26 | 51.37641 | 6.12922 | 34906 ft | 449 kts | 126° |
| 2026-05-05 12:26 | 51.34397 | 6.21454 | 34895 ft | 448 kts | 126° |
| 2026-05-05 12:27 | 51.31155 | 6.29952 | 34878 ft | 448 kts | 127° |
| 2026-05-05 12:27 | 51.27912 | 6.38424 | 34884 ft | 448 kts | 127° |
| 2026-05-05 12:28 | 51.24647 | 6.46927 | 34889 ft | 449 kts | 127° |
| 2026-05-05 12:28 | 51.21371 | 6.55429 | 34891 ft | 451 kts | 127° |
| 2026-05-05 12:29 | 51.18076 | 6.63953 | 34884 ft | 452 kts | 127° |
| 2026-05-05 12:29 | 51.14777 | 6.72461 | 34881 ft | 453 kts | 127° |
| 2026-05-05 12:30 | 51.11462 | 6.80981 | 34889 ft | 452 kts | 127° |
| 2026-05-05 12:30 | 51.08149 | 6.89470 | 34877 ft | 451 kts | 127° |
| 2026-05-05 12:31 | 51.04842 | 6.97915 | 34851 ft | 449 kts | 127° |
| 2026-05-05 12:31 | 51.01543 | 7.06313 | 34858 ft | 447 kts | 127° |
| 2026-05-05 12:32 | 50.98998 | 7.12769 | 34845 ft | 446 kts | 128° |
| 2026-05-05 12:32 | 50.95751 | 7.20987 | 34856 ft | 445 kts | 128° |
| 2026-05-05 12:33 | 50.92466 | 7.29272 | 34857 ft | 444 kts | 128° |
| 2026-05-05 12:33 | 50.89176 | 7.37544 | 34856 ft | 443 kts | 128° |
| 2026-05-05 12:34 | 50.85886 | 7.45789 | 34857 ft | 443 kts | 128° |
| 2026-05-05 12:34 | 50.82582 | 7.54042 | 34835 ft | 444 kts | 128° |
| 2026-05-05 12:35 | 50.79267 | 7.62298 | 34846 ft | 445 kts | 128° |
| 2026-05-05 12:35 | 50.75940 | 7.70558 | 34849 ft | 446 kts | 128° |
| 2026-05-05 12:36 | 50.73573 | 7.76420 | 34851 ft | 447 kts | 128° |
| 2026-05-05 12:36 | 50.70214 | 7.84715 | 34874 ft | 449 kts | 128° |
| 2026-05-05 12:37 | 50.66849 | 7.92999 | 34854 ft | 452 kts | 128° |
| 2026-05-05 12:37 | 50.63431 | 8.01393 | 34851 ft | 451 kts | 129° |
| 2026-05-05 12:38 | 50.60028 | 8.09687 | 34834 ft | 449 kts | 130° |
| 2026-05-05 12:38 | 50.56242 | 8.17413 | 34832 ft | 444 kts | 135° |
| 2026-05-05 12:39 | 50.52334 | 8.24880 | 34819 ft | 442 kts | 135° |
| 2026-05-05 12:39 | 50.48492 | 8.32324 | 34828 ft | 440 kts | 135° |
| 2026-05-05 12:40 | 50.44663 | 8.39814 | 34813 ft | 439 kts | 134° |
| 2026-05-05 12:40 | 50.40844 | 8.47275 | 34830 ft | 438 kts | 134° |
| 2026-05-05 12:41 | 50.36989 | 8.54680 | 34831 ft | 437 kts | 137° |
| 2026-05-05 12:41 | 50.33075 | 8.61358 | 34830 ft | 436 kts | 139° |
| 2026-05-05 12:42 | 50.30506 | 8.65576 | 34837 ft | 437 kts | 139° |
| 2026-05-05 12:42 | 50.26345 | 8.72416 | 34826 ft | 438 kts | 139° |
| 2026-05-05 12:43 | 50.22162 | 8.79343 | 34828 ft | 438 kts | 139° |
| 2026-05-05 12:43 | 50.17983 | 8.86283 | 34827 ft | 438 kts | 139° |
| 2026-05-05 12:44 | 50.13811 | 8.93201 | 34825 ft | 437 kts | 139° |
| 2026-05-05 12:44 | 50.09645 | 9.00090 | 34827 ft | 436 kts | 139° |
| 2026-05-05 12:45 | 50.05483 | 9.06952 | 34831 ft | 435 kts | 139° |
| 2026-05-05 12:45 | 50.01328 | 9.13784 | 34822 ft | 434 kts | 139° |
| 2026-05-05 12:46 | 49.97212 | 9.20531 | 34822 ft | 432 kts | 139° |
| 2026-05-05 12:46 | 49.93074 | 9.27298 | 34820 ft | 431 kts | 139° |
| 2026-05-05 12:47 | 49.88949 | 9.34027 | 34833 ft | 430 kts | 139° |
| 2026-05-05 12:47 | 49.84820 | 9.40741 | 34831 ft | 430 kts | 139° |
| 2026-05-05 12:48 | 49.80690 | 9.47440 | 34828 ft | 430 kts | 139° |
| 2026-05-05 12:48 | 49.76557 | 9.54126 | 34812 ft | 430 kts | 139° |
| 2026-05-05 12:49 | 49.72419 | 9.60805 | 34820 ft | 430 kts | 139° |
| 2026-05-05 12:49 | 49.68276 | 9.67473 | 34826 ft | 430 kts | 139° |
| 2026-05-05 12:50 | 49.64128 | 9.74131 | 34826 ft | 431 kts | 139° |
| 2026-05-05 12:50 | 49.59969 | 9.80789 | 34824 ft | 431 kts | 139° |
| 2026-05-05 12:51 | 49.55806 | 9.87438 | 34826 ft | 431 kts | 139° |
| 2026-05-05 12:51 | 49.51636 | 9.94080 | 34815 ft | 431 kts | 139° |
| 2026-05-05 12:52 | 49.47468 | 10.00702 | 34824 ft | 430 kts | 139° |
| 2026-05-05 12:52 | 49.43294 | 10.07317 | 34826 ft | 430 kts | 139° |
| 2026-05-05 12:53 | 49.39126 | 10.13903 | 34832 ft | 430 kts | 139° |
| 2026-05-05 12:53 | 49.34949 | 10.20488 | 34821 ft | 430 kts | 139° |
| 2026-05-05 12:54 | 49.28687 | 10.30330 | 34821 ft | 430 kts | 139° |
| 2026-05-05 12:55 | 49.24532 | 10.36839 | 34833 ft | 430 kts | 139° |
| 2026-05-05 12:55 | 49.20305 | 10.43298 | 34857 ft | 430 kts | 140° |
| 2026-05-05 12:56 | 49.16003 | 10.49659 | 34857 ft | 431 kts | 141° |
| 2026-05-05 12:56 | 49.11693 | 10.56020 | 34854 ft | 431 kts | 140° |
| 2026-05-05 12:57 | 49.07377 | 10.62400 | 34856 ft | 432 kts | 140° |
| 2026-05-05 12:57 | 49.03053 | 10.68788 | 34837 ft | 433 kts | 141° |
| 2026-05-05 12:58 | 48.98724 | 10.75169 | 34849 ft | 434 kts | 141° |
| 2026-05-05 12:58 | 48.94379 | 10.81556 | 34836 ft | 435 kts | 141° |
| 2026-05-05 12:59 | 48.90022 | 10.87945 | 34826 ft | 436 kts | 141° |
| 2026-05-05 12:59 | 48.85656 | 10.94333 | 34814 ft | 436 kts | 141° |
| 2026-05-05 13:00 | 48.79166 | 11.03795 | 34802 ft | 436 kts | 141° |
| 2026-05-05 13:01 | 48.70411 | 11.16507 | 34802 ft | 436 kts | 141° |
| 2026-05-05 13:01 | 48.66061 | 11.22800 | 34802 ft | 435 kts | 141° |
| 2026-05-05 13:02 | 48.61800 | 11.29334 | 34805 ft | 437 kts | 137° |
| 2026-05-05 13:02 | 48.57724 | 11.36165 | 34787 ft | 437 kts | 136° |
| 2026-05-05 13:03 | 48.53669 | 11.42989 | 34799 ft | 436 kts | 136° |
| 2026-05-05 13:03 | 48.49598 | 11.49767 | 34787 ft | 437 kts | 136° |
| 2026-05-05 13:04 | 48.45505 | 11.56531 | 34804 ft | 437 kts | 136° |
| 2026-05-05 13:04 | 48.41393 | 11.63300 | 34804 ft | 439 kts | 136° |
| 2026-05-05 13:05 | 48.37257 | 11.70091 | 34793 ft | 441 kts | 136° |
| 2026-05-05 13:05 | 48.33112 | 11.76881 | 34803 ft | 442 kts | 136° |
| 2026-05-05 13:06 | 48.28948 | 11.83686 | 34802 ft | 443 kts | 136° |
| 2026-05-05 13:06 | 48.24811 | 11.90430 | 34799 ft | 443 kts | 136° |
| 2026-05-05 13:07 | 48.20586 | 11.97298 | 34794 ft | 444 kts | 136° |
| 2026-05-05 13:07 | 48.16401 | 12.04086 | 34778 ft | 444 kts | 136° |
| 2026-05-05 13:08 | 48.12203 | 12.10876 | 34779 ft | 444 kts | 137° |
| 2026-05-05 13:08 | 48.07999 | 12.17655 | 34801 ft | 444 kts | 137° |
| 2026-05-05 13:09 | 48.03784 | 12.24438 | 34786 ft | 446 kts | 137° |
| 2026-05-05 13:09 | 47.99581 | 12.31182 | 34799 ft | 446 kts | 137° |
| 2026-05-05 13:10 | 47.95344 | 12.37964 | 34786 ft | 447 kts | 136° |
| 2026-05-05 13:10 | 47.91092 | 12.44754 | 34783 ft | 448 kts | 136° |
| 2026-05-05 13:11 | 47.86833 | 12.51536 | 34792 ft | 448 kts | 136° |
| 2026-05-05 13:11 | 47.82572 | 12.58305 | 34790 ft | 448 kts | 136° |
| 2026-05-05 13:12 | 47.78302 | 12.65071 | 34778 ft | 448 kts | 136° |
| 2026-05-05 13:12 | 47.74030 | 12.71823 | 34759 ft | 448 kts | 136° |
| 2026-05-05 13:13 | 47.69754 | 12.78566 | 34766 ft | 448 kts | 136° |
| 2026-05-05 13:13 | 47.65429 | 12.85213 | 34779 ft | 447 kts | 138° |
| 2026-05-05 13:14 | 47.61004 | 12.91704 | 34785 ft | 448 kts | 139° |
| 2026-05-05 13:14 | 47.57310 | 12.97108 | 34792 ft | 449 kts | 139° |
| 2026-05-05 13:15 | 47.52874 | 13.03623 | 34799 ft | 450 kts | 138° |
| 2026-05-05 13:15 | 47.47713 | 13.11207 | 34806 ft | 450 kts | 138° |
| 2026-05-05 13:16 | 47.43270 | 13.17719 | 34811 ft | 449 kts | 139° |
| 2026-05-05 13:16 | 47.39555 | 13.23151 | 34823 ft | 449 kts | 139° |
| 2026-05-05 13:17 | 47.35103 | 13.29645 | 34844 ft | 451 kts | 139° |
| 2026-05-05 13:17 | 47.30819 | 13.36365 | 34848 ft | 455 kts | 132° |
| 2026-05-05 13:18 | 47.27009 | 13.43499 | 34862 ft | 456 kts | 131° |
| 2026-05-05 13:18 | 47.23127 | 13.50898 | 34878 ft | 457 kts | 131° |
| 2026-05-05 13:19 | 47.19205 | 13.58263 | 34868 ft | 457 kts | 131° |
| 2026-05-05 13:19 | 47.15270 | 13.65560 | 34899 ft | 457 kts | 131° |
| 2026-05-05 13:20 | 47.11304 | 13.72872 | 34894 ft | 458 kts | 131° |
| 2026-05-05 13:20 | 47.07331 | 13.80176 | 34906 ft | 457 kts | 131° |
| 2026-05-05 13:21 | 47.03366 | 13.87450 | 34920 ft | 456 kts | 131° |
| 2026-05-05 13:21 | 46.99403 | 13.94701 | 34921 ft | 456 kts | 131° |
| 2026-05-05 13:22 | 46.95461 | 14.01896 | 34904 ft | 455 kts | 132° |
| 2026-05-05 13:22 | 46.91506 | 14.09095 | 34906 ft | 454 kts | 131° |
| 2026-05-05 13:23 | 46.87549 | 14.16279 | 34936 ft | 453 kts | 132° |
| 2026-05-05 13:23 | 46.83596 | 14.23436 | 34947 ft | 453 kts | 132° |
| 2026-05-05 13:24 | 46.79630 | 14.30600 | 34954 ft | 453 kts | 132° |
| 2026-05-05 13:24 | 46.75660 | 14.37751 | 34952 ft | 453 kts | 132° |
| 2026-05-05 13:25 | 46.71681 | 14.44901 | 34967 ft | 453 kts | 132° |
| 2026-05-05 13:25 | 46.67710 | 14.52018 | 34962 ft | 453 kts | 132° |
| 2026-05-05 13:26 | 46.63722 | 14.59144 | 34943 ft | 454 kts | 132° |
| 2026-05-05 13:26 | 46.59754 | 14.66219 | 34962 ft | 454 kts | 133° |
| 2026-05-05 13:27 | 46.55748 | 14.73343 | 34953 ft | 455 kts | 132° |
| 2026-05-05 13:27 | 46.51727 | 14.80474 | 34931 ft | 456 kts | 132° |
| 2026-05-05 13:28 | 46.47699 | 14.87601 | 34954 ft | 456 kts | 132° |
| 2026-05-05 13:28 | 46.43659 | 14.94730 | 34950 ft | 457 kts | 132° |
| 2026-05-05 13:29 | 46.39642 | 15.01801 | 34937 ft | 457 kts | 133° |
| 2026-05-05 13:29 | 46.35598 | 15.08902 | 34947 ft | 457 kts | 132° |
| 2026-05-05 13:30 | 46.31550 | 15.15990 | 34958 ft | 457 kts | 132° |
| 2026-05-05 13:30 | 46.27498 | 15.23067 | 34969 ft | 456 kts | 132° |
| 2026-05-05 13:31 | 46.23436 | 15.30142 | 34964 ft | 456 kts | 133° |
| 2026-05-05 13:31 | 46.19385 | 15.37182 | 34961 ft | 456 kts | 133° |
| 2026-05-05 13:32 | 46.15329 | 15.44212 | 34979 ft | 455 kts | 133° |
| 2026-05-05 13:32 | 46.11290 | 15.51195 | 34978 ft | 455 kts | 133° |
| 2026-05-05 13:33 | 46.07853 | 15.57125 | 34982 ft | 455 kts | 133° |
| 2026-05-05 13:33 | 46.03786 | 15.64123 | 34990 ft | 455 kts | 133° |
| 2026-05-05 13:34 | 45.99717 | 15.71107 | 34993 ft | 456 kts | 133° |
| 2026-05-05 13:34 | 45.95637 | 15.78092 | 34989 ft | 456 kts | 133° |
| 2026-05-05 13:35 | 45.91549 | 15.85075 | 34989 ft | 456 kts | 133° |
| 2026-05-05 13:35 | 45.87456 | 15.92048 | 34984 ft | 457 kts | 133° |
| 2026-05-05 13:36 | 45.83353 | 15.99019 | 35009 ft | 457 kts | 133° |
| 2026-05-05 13:36 | 45.81300 | 16.02502 | 35013 ft | 457 kts | 133° |
| 2026-05-05 13:39 | 45.75357 | 16.12558 | 34997 ft | 458 kts | 133° |
| 2026-05-05 13:39 | 45.71233 | 16.19514 | 34990 ft | 458 kts | 133° |
| 2026-05-05 13:40 | 45.67109 | 16.26455 | 34967 ft | 458 kts | 133° |
| 2026-05-05 13:40 | 45.62982 | 16.33382 | 34979 ft | 457 kts | 133° |
| 2026-05-05 13:41 | 45.58854 | 16.40294 | 34979 ft | 456 kts | 133° |
| 2026-05-05 13:41 | 45.54758 | 16.47135 | 34976 ft | 456 kts | 133° |
| 2026-05-05 13:42 | 45.50637 | 16.54002 | 34971 ft | 455 kts | 133° |
| 2026-05-05 13:42 | 45.46518 | 16.60848 | 34972 ft | 455 kts | 133° |
| 2026-05-05 13:43 | 45.42369 | 16.67726 | 34969 ft | 454 kts | 133° |
| 2026-05-05 13:43 | 45.38280 | 16.74489 | 34971 ft | 454 kts | 133° |
| 2026-05-05 13:44 | 45.34155 | 16.81295 | 34967 ft | 454 kts | 133° |
| 2026-05-05 13:44 | 45.30026 | 16.88092 | 34949 ft | 454 kts | 133° |
| 2026-05-05 13:45 | 45.25892 | 16.94880 | 34964 ft | 455 kts | 133° |
| 2026-05-05 13:45 | 45.21736 | 17.01687 | 34965 ft | 457 kts | 133° |
| 2026-05-05 13:46 | 45.17561 | 17.08512 | 34973 ft | 459 kts | 133° |
| 2026-05-05 13:46 | 45.13367 | 17.15350 | 34953 ft | 461 kts | 133° |
| 2026-05-05 13:47 | 45.09238 | 17.22343 | 34959 ft | 463 kts | 131° |
| 2026-05-05 13:47 | 45.05164 | 17.29430 | 34960 ft | 465 kts | 131° |
| 2026-05-05 13:48 | 45.01100 | 17.36474 | 34962 ft | 465 kts | 131° |
| 2026-05-05 13:48 | 44.96968 | 17.43582 | 34963 ft | 465 kts | 132° |
| 2026-05-05 13:49 | 44.92884 | 17.50573 | 34959 ft | 464 kts | 132° |
| 2026-05-05 13:49 | 44.88772 | 17.57591 | 34961 ft | 464 kts | 132° |
| 2026-05-05 13:50 | 44.84662 | 17.64588 | 34963 ft | 463 kts | 132° |
| 2026-05-05 13:50 | 44.80553 | 17.71567 | 34960 ft | 462 kts | 132° |
| 2026-05-05 13:51 | 44.76439 | 17.78538 | 34953 ft | 463 kts | 132° |
| 2026-05-05 13:51 | 44.72321 | 17.85499 | 34961 ft | 463 kts | 132° |
| 2026-05-05 13:52 | 44.68195 | 17.92454 | 34959 ft | 464 kts | 132° |
| 2026-05-05 13:52 | 44.64052 | 17.99424 | 34965 ft | 465 kts | 132° |
| 2026-05-05 13:53 | 44.59893 | 18.06403 | 34951 ft | 467 kts | 133° |
| 2026-05-05 13:53 | 44.55715 | 18.13395 | 34963 ft | 468 kts | 133° |
| 2026-05-05 13:54 | 44.51523 | 18.20396 | 34973 ft | 470 kts | 133° |
| 2026-05-05 13:54 | 44.47298 | 18.27431 | 34966 ft | 472 kts | 132° |
| 2026-05-05 13:55 | 44.43057 | 18.34478 | 34958 ft | 474 kts | 132° |
| 2026-05-05 13:55 | 44.38798 | 18.41537 | 34972 ft | 476 kts | 133° |
| 2026-05-05 13:56 | 44.34543 | 18.48573 | 34977 ft | 477 kts | 133° |
| 2026-05-05 13:56 | 44.30259 | 18.55640 | 34970 ft | 476 kts | 133° |
| 2026-05-05 13:57 | 44.25973 | 18.62690 | 34976 ft | 476 kts | 133° |
| 2026-05-05 13:57 | 44.21687 | 18.69723 | 34980 ft | 476 kts | 132° |
| 2026-05-05 13:58 | 44.17393 | 18.76754 | 34986 ft | 476 kts | 132° |
| 2026-05-05 13:58 | 44.13106 | 18.83754 | 34985 ft | 475 kts | 132° |
| 2026-05-05 13:59 | 44.06692 | 18.94196 | 34990 ft | 475 kts | 132° |
| 2026-05-05 14:00 | 44.00937 | 19.03534 | 34986 ft | 475 kts | 132° |
| 2026-05-05 14:00 | 43.95931 | 19.11631 | 34999 ft | 476 kts | 132° |
| 2026-05-05 14:01 | 43.91612 | 19.18598 | 34998 ft | 476 kts | 132° |
| 2026-05-05 14:01 | 43.87285 | 19.25561 | 34995 ft | 477 kts | 132° |
| 2026-05-05 14:02 | 43.82952 | 19.32519 | 34985 ft | 477 kts | 132° |
| 2026-05-05 14:02 | 43.78606 | 19.39479 | 34996 ft | 477 kts | 132° |
| 2026-05-05 14:03 | 43.74259 | 19.46424 | 34981 ft | 477 kts | 132° |
| 2026-05-05 14:03 | 43.69905 | 19.53365 | 34993 ft | 477 kts | 132° |
| 2026-05-05 14:04 | 43.66285 | 19.59120 | 34984 ft | 478 kts | 133° |
| 2026-05-05 14:04 | 43.61921 | 19.66045 | 34996 ft | 478 kts | 133° |
| 2026-05-05 14:05 | 43.57544 | 19.72974 | 34983 ft | 479 kts | 132° |
| 2026-05-05 14:05 | 43.53216 | 19.79808 | 34990 ft | 480 kts | 132° |
| 2026-05-05 14:06 | 43.48820 | 19.86735 | 34990 ft | 481 kts | 132° |
| 2026-05-05 14:06 | 43.44406 | 19.93671 | 35005 ft | 481 kts | 133° |
| 2026-05-05 14:07 | 43.39988 | 20.00599 | 34982 ft | 482 kts | 132° |
| 2026-05-05 14:07 | 43.35560 | 20.07525 | 35012 ft | 483 kts | 132° |
| 2026-05-05 14:08 | 43.31116 | 20.14460 | 35004 ft | 484 kts | 132° |
| 2026-05-05 14:08 | 43.26664 | 20.21389 | 35008 ft | 485 kts | 132° |
| 2026-05-05 14:09 | 43.22226 | 20.28281 | 35010 ft | 485 kts | 132° |
| 2026-05-05 14:09 | 43.17754 | 20.35209 | 34999 ft | 486 kts | 132° |
| 2026-05-05 14:10 | 43.13282 | 20.42121 | 34999 ft | 486 kts | 132° |